createdAt,value
2022-12-07T00:01:29.996Z,2.17
2022-12-07T00:04:14.304Z,2.33
2022-12-07T00:06:57.146Z,2.40
2022-12-07T00:09:42.795Z,2.43
2022-12-07T00:12:26.137Z,2.56
2022-12-07T00:15:07.248Z,2.54
2022-12-07T00:17:51.494Z,2.56
2022-12-07T00:20:45.946Z,2.52
2022-12-07T00:23:36.079Z,2.58
2022-12-07T00:26:28.200Z,2.41
2022-12-07T00:29:24.389Z,2.25
2022-12-07T00:32:07.005Z,2.17
2022-12-07T00:34:48.069Z,2.08
2022-12-07T00:37:30.805Z,2.10
2022-12-07T00:40:17.931Z,2.04
2022-12-07T00:42:59.345Z,2.01
2022-12-07T00:45:40.647Z,1.97
2022-12-07T00:48:30.594Z,1.87
2022-12-07T00:51:12.157Z,1.84
2022-12-07T00:54:01.074Z,1.79
2022-12-07T00:56:45.784Z,1.79
2022-12-07T00:59:26.678Z,1.69
2022-12-07T01:02:19.236Z,1.52
2022-12-07T01:04:59.660Z,1.50
2022-12-07T01:07:46.733Z,1.55
2022-12-07T01:10:32.588Z,1.43
2022-12-07T01:13:17.641Z,1.23
2022-12-07T01:16:09.369Z,1.20
2022-12-07T01:18:45.428Z,1.11
2022-12-07T01:21:36.677Z,1.05
2022-12-07T01:24:20.236Z,0.98
2022-12-07T01:27:02.109Z,0.85
2022-12-07T01:29:48.315Z,0.79
2022-12-07T01:32:34.303Z,0.62
2022-12-07T01:35:15.782Z,0.64
2022-12-07T01:37:58.581Z,0.47
2022-12-07T01:40:34.146Z,0.56
2022-12-07T01:43:22.049Z,0.39
2022-12-07T01:46:02.659Z,0.34
2022-12-07T01:48:52.119Z,0.32
2022-12-07T01:51:33.169Z,0.40
2022-12-07T01:54:11.339Z,0.44
2022-12-07T01:57:02.980Z,0.53
2022-12-07T01:59:48.725Z,0.33
2022-12-07T02:02:33.180Z,0.49
2022-12-07T02:05:18.046Z,0.51
2022-12-07T02:07:58.220Z,0.39
2022-12-07T02:10:45.761Z,0.47
2022-12-07T02:13:25.063Z,0.42
2022-12-07T02:16:24.778Z,0.61
2022-12-07T02:19:24.850Z,0.74
2022-12-07T02:22:22.750Z,0.74
2022-12-07T02:25:13.284Z,0.85
2022-12-07T02:28:06.497Z,0.88
2022-12-07T02:30:48.478Z,0.99
2022-12-07T02:33:47.240Z,1.10
2022-12-07T02:36:40.075Z,1.18
2022-12-07T02:39:30.422Z,1.21
2022-12-07T02:42:24.137Z,1.19
2022-12-07T02:45:02.087Z,1.38
2022-12-07T02:47:59.875Z,1.46
2022-12-07T02:50:43.477Z,1.56
2022-12-07T02:53:43.892Z,1.72
2022-12-07T02:56:38.377Z,1.81
2022-12-07T02:59:52.883Z,1.77
2022-12-07T03:02:54.387Z,1.74
2022-12-07T03:06:00.508Z,1.95
2022-12-07T03:09:07.705Z,1.89
2022-12-07T03:12:16.607Z,1.94
2022-12-07T03:15:02.050Z,2.01
2022-12-07T03:17:46.441Z,2.06
2022-12-07T03:20:29.318Z,2.09
2022-12-07T03:23:22.148Z,2.12
2022-12-07T03:26:08.542Z,2.24
2022-12-07T03:28:52.940Z,2.12
2022-12-07T03:31:42.897Z,2.13
2022-12-07T03:34:58.113Z,2.16
2022-12-07T03:37:38.900Z,2.32
2022-12-07T03:40:27.409Z,2.33
2022-12-07T03:43:19.065Z,2.45
2022-12-07T03:46:27.788Z,2.52
2022-12-07T03:49:23.386Z,2.51
2022-12-07T03:52:28.162Z,2.52
2022-12-07T03:55:22.194Z,2.72
2022-12-07T03:58:03.956Z,2.56
2022-12-07T04:00:48.346Z,2.64
2022-12-07T04:03:29.291Z,2.74
2022-12-07T04:06:12.439Z,2.75
2022-12-07T04:09:01.880Z,2.67
2022-12-07T04:11:40.167Z,2.74
2022-12-07T04:14:29.227Z,2.76
2022-12-07T04:17:16.372Z,2.86
2022-12-07T04:20:08.706Z,2.85
2022-12-07T04:22:51.535Z,3.00
2022-12-07T04:25:55.670Z,3.09
2022-12-07T04:28:49.245Z,3.26
2022-12-07T04:31:27.712Z,3.26
2022-12-07T04:34:14.204Z,3.25
2022-12-07T04:36:58.345Z,3.23
2022-12-07T04:40:02.350Z,3.17
2022-12-07T04:42:54.750Z,3.15
2022-12-07T04:45:42.651Z,3.19
2022-12-07T04:48:46.439Z,3.26
2022-12-07T04:51:47.509Z,3.24
2022-12-07T04:54:34.980Z,3.24
2022-12-07T04:57:20.762Z,3.26
2022-12-07T05:00:07.817Z,3.24
2022-12-07T05:02:51.270Z,3.35
2022-12-07T05:05:35.001Z,3.30
2022-12-07T05:08:18.817Z,3.29
2022-12-07T05:11:11.343Z,3.37
2022-12-07T05:14:00.611Z,3.35
2022-12-07T05:16:45.016Z,3.37
2022-12-07T05:19:28.821Z,3.36
2022-12-07T05:22:18.201Z,3.42
2022-12-07T05:25:02.308Z,3.41
2022-12-07T05:28:03.736Z,3.46
2022-12-07T05:30:59.640Z,3.51
2022-12-07T05:33:46.018Z,3.43
2022-12-07T05:36:33.064Z,3.40
2022-12-07T05:39:20.452Z,3.45
2022-12-07T05:42:17.736Z,3.37
2022-12-07T05:45:03.762Z,3.45
2022-12-07T05:47:53.036Z,3.42
2022-12-07T05:50:41.561Z,3.42
2022-12-07T05:53:28.725Z,3.36
2022-12-07T05:56:15.640Z,3.42
2022-12-07T05:59:29.601Z,3.35
2022-12-07T06:02:21.133Z,3.38
2022-12-07T06:05:13.044Z,3.55
2022-12-07T06:07:54.221Z,3.50
2022-12-07T06:10:42.852Z,3.57
2022-12-07T06:13:29.135Z,3.72
2022-12-07T06:16:13.233Z,3.65
2022-12-07T06:18:57.082Z,3.60
2022-12-07T06:21:38.097Z,3.68
2022-12-07T06:24:29.418Z,3.72
2022-12-07T06:27:12.539Z,3.74
2022-12-07T06:30:07.693Z,3.64
2022-12-07T06:33:10.322Z,3.86
2022-12-07T06:36:08.188Z,4.00
2022-12-07T06:38:54.203Z,3.93
2022-12-07T06:41:48.768Z,3.99
2022-12-07T06:44:29.120Z,4.16
2022-12-07T06:47:40.079Z,4.08
2022-12-07T06:50:28.969Z,4.05
2022-12-07T06:53:15.160Z,4.11
2022-12-07T06:55:52.988Z,4.33
2022-12-07T06:58:43.691Z,4.45
2022-12-07T07:01:20.259Z,4.39
2022-12-07T07:04:00.596Z,4.32
2022-12-07T07:06:47.238Z,4.72
2022-12-07T07:09:25.711Z,4.75
2022-12-07T07:12:18.148Z,4.52
2022-12-07T07:15:04.149Z,4.49
2022-12-07T07:17:55.059Z,4.65
2022-12-07T07:20:44.780Z,4.40
2022-12-07T07:23:31.313Z,4.61
2022-12-07T07:26:23.566Z,4.66
2022-12-07T07:29:10.903Z,4.87
2022-12-07T07:32:04.842Z,4.75
2022-12-07T07:34:55.395Z,4.99
2022-12-07T07:37:45.002Z,4.90
2022-12-07T07:40:30.018Z,4.91
2022-12-07T07:43:13.222Z,4.92
2022-12-07T07:45:58.748Z,5.14
2022-12-07T07:48:37.714Z,5.07
2022-12-07T07:51:24.253Z,5.20
2022-12-07T07:54:02.393Z,5.12
2022-12-07T07:56:45.558Z,5.12
2022-12-07T07:59:27.351Z,5.29
2022-12-07T08:02:13.179Z,5.30
2022-12-07T08:05:02.903Z,5.23
2022-12-07T08:07:45.118Z,5.26
2022-12-07T08:10:41.028Z,5.26
2022-12-07T08:13:19.315Z,5.14
2022-12-07T08:16:11.550Z,5.06
2022-12-07T08:19:03.196Z,5.23
2022-12-07T08:21:47.049Z,5.23
2022-12-07T08:24:20.824Z,5.14
2022-12-07T08:27:05.012Z,5.02
2022-12-07T08:29:46.430Z,5.17
2022-12-07T08:32:33.307Z,5.16
2022-12-07T08:35:17.586Z,5.20
2022-12-07T08:38:01.337Z,5.30
2022-12-07T08:40:46.210Z,5.17
2022-12-07T08:43:31.584Z,5.22
2022-12-07T08:46:23.769Z,5.50
2022-12-07T08:49:35.271Z,5.54
2022-12-07T08:52:22.590Z,5.57
2022-12-07T08:55:14.220Z,5.76
2022-12-07T08:57:55.755Z,5.75
2022-12-07T09:00:37.088Z,5.96
2022-12-07T09:03:28.592Z,5.93
2022-12-07T09:09:18.148Z,5.99
2022-12-07T09:12:09.349Z,5.85
2022-12-07T09:14:55.201Z,5.98
2022-12-07T09:17:50.956Z,5.93
2022-12-07T09:20:37.789Z,6.06
2022-12-07T09:23:21.342Z,6.07
2022-12-07T09:26:10.789Z,6.06
2022-12-07T09:29:10.198Z,6.06
2022-12-07T09:31:57.776Z,5.89
2022-12-07T09:34:52.911Z,5.99
2022-12-07T09:37:44.601Z,6.07
2022-12-07T09:40:51.870Z,5.98
2022-12-07T09:43:36.746Z,6.16
2022-12-07T09:46:19.696Z,6.18
2022-12-07T09:49:02.216Z,6.24
2022-12-07T09:51:43.756Z,6.13
2022-12-07T09:54:30.741Z,6.22
2022-12-07T09:57:24.837Z,6.22
2022-12-07T10:00:08.889Z,6.24
2022-12-07T10:03:27.969Z,6.36
2022-12-07T10:06:23.702Z,6.13
2022-12-07T10:09:11.509Z,6.00
2022-12-07T10:12:10.725Z,6.38
2022-12-07T10:15:09.555Z,6.21
2022-12-07T10:17:54.712Z,6.23
2022-12-07T10:20:43.180Z,6.36
2022-12-07T10:23:38.697Z,6.44
2022-12-07T10:26:44.003Z,6.52
2022-12-07T10:29:38.284Z,6.74
2022-12-07T10:32:52.601Z,6.88
2022-12-07T10:35:51.706Z,7.11
2022-12-07T10:38:45.292Z,7.29
2022-12-07T10:41:26.455Z,7.42
2022-12-07T10:44:07.997Z,7.54
2022-12-07T10:47:35.358Z,7.67
2022-12-07T10:50:58.694Z,7.50
2022-12-07T10:54:09.156Z,7.68
2022-12-07T10:57:40.933Z,7.71
2022-12-07T11:00:22.534Z,7.43
2022-12-07T11:03:28.798Z,7.45
2022-12-07T11:06:29.225Z,7.33
2022-12-07T11:09:29.253Z,7.44
2022-12-07T11:12:36.607Z,7.35
2022-12-07T11:15:27.778Z,7.79
2022-12-07T11:18:34.043Z,8.11
2022-12-07T11:21:45.857Z,8.42
2022-12-07T11:24:44.999Z,8.27
2022-12-07T11:28:18.095Z,8.24
2022-12-07T11:31:17.708Z,8.11
2022-12-07T11:34:07.710Z,8.09
2022-12-07T11:36:57.092Z,8.00
2022-12-07T11:39:53.659Z,8.13
2022-12-07T11:42:40.199Z,8.10
2022-12-07T11:46:08.691Z,8.23
2022-12-07T11:49:01.722Z,8.26
2022-12-07T11:51:43.352Z,8.16
2022-12-07T11:54:30.394Z,8.51
2022-12-07T11:57:22.255Z,8.34
2022-12-07T12:00:21.074Z,8.12
2022-12-07T12:03:22.230Z,7.73
2022-12-07T12:06:12.359Z,7.48
2022-12-07T12:16:23.412Z,7.33
2022-12-07T12:19:18.535Z,7.39
2022-12-07T12:22:03.938Z,7.38
2022-12-07T12:24:56.215Z,7.53
2022-12-07T12:27:42.803Z,7.72
2022-12-07T12:30:42.035Z,7.89
2022-12-07T12:33:41.692Z,8.33
2022-12-07T12:36:31.818Z,8.30
2022-12-07T12:39:24.511Z,8.03
2022-12-07T12:42:05.657Z,7.90
2022-12-07T12:45:21.690Z,7.69
2022-12-07T12:48:36.843Z,7.98
2022-12-07T12:51:40.612Z,8.08
2022-12-07T12:54:44.378Z,8.03
2022-12-07T12:57:35.219Z,8.10
2022-12-07T13:00:39.494Z,7.85
2022-12-07T13:03:43.172Z,7.85
2022-12-07T13:07:00.198Z,7.71
2022-12-07T13:13:21.673Z,7.62
2022-12-07T13:16:19.993Z,7.78
2022-12-07T13:19:03.383Z,7.49
2022-12-07T13:21:55.683Z,7.36
2022-12-07T13:24:41.399Z,7.07
2022-12-07T13:27:31.120Z,7.10
2022-12-07T13:30:29.606Z,7.24
2022-12-07T13:33:25.629Z,7.22
2022-12-07T13:39:32.097Z,7.12
2022-12-07T13:42:45.141Z,6.98
2022-12-07T13:45:50.561Z,6.73
2022-12-07T13:49:09.636Z,6.45
2022-12-07T13:51:54.154Z,6.52
2022-12-07T13:54:37.303Z,6.54
2022-12-07T13:57:33.192Z,6.33
2022-12-07T14:00:27.802Z,6.27
2022-12-07T14:03:34.259Z,6.28
2022-12-07T14:06:34.250Z,6.10
2022-12-07T14:09:31.758Z,6.01
2022-12-07T14:12:21.544Z,6.04
2022-12-07T14:18:10.788Z,6.04
2022-12-07T14:20:59.515Z,5.94
2022-12-07T14:23:41.126Z,5.79
2022-12-07T14:26:25.267Z,5.81
2022-12-07T14:29:27.083Z,5.63
2022-12-07T14:32:23.862Z,5.59
2022-12-07T14:35:28.752Z,5.53
2022-12-07T14:38:10.723Z,5.39
2022-12-07T14:41:11.642Z,5.40
2022-12-07T14:44:21.763Z,5.37
2022-12-07T14:50:16.446Z,5.15
2022-12-07T14:56:13.990Z,4.95
2022-12-07T14:59:04.643Z,4.85
2022-12-07T15:01:46.577Z,4.83
2022-12-07T15:04:46.504Z,4.72
2022-12-07T15:07:45.119Z,4.66
2022-12-07T15:10:33.739Z,4.63
2022-12-07T15:13:27.433Z,4.63
2022-12-07T15:16:12.088Z,4.41
2022-12-07T15:19:26.762Z,4.49
2022-12-07T15:22:09.284Z,4.40
2022-12-07T15:24:53.899Z,4.30
2022-12-07T15:27:41.227Z,4.33
2022-12-07T15:30:23.810Z,4.17
2022-12-07T15:33:13.715Z,3.96
2022-12-07T15:36:16.528Z,3.68
2022-12-07T15:39:13.747Z,3.44
2022-12-07T15:41:54.758Z,3.30
2022-12-07T15:44:56.901Z,3.14
2022-12-07T15:48:02.436Z,3.15
2022-12-07T15:50:48.446Z,3.18
2022-12-07T15:53:50.497Z,3.03
2022-12-07T15:56:51.685Z,3.01
2022-12-07T15:59:41.131Z,2.76
2022-12-07T16:02:38.126Z,2.72
2022-12-07T16:05:36.356Z,2.50
2022-12-07T16:08:16.694Z,2.38
2022-12-07T16:10:57.916Z,2.34
2022-12-07T16:13:53.893Z,2.03
2022-12-07T16:16:43.725Z,1.99
2022-12-07T16:19:27.902Z,1.81
2022-12-07T16:22:20.787Z,1.90
2022-12-07T16:25:00.495Z,1.83
2022-12-07T16:30:50.856Z,1.77
2022-12-07T16:33:40.300Z,1.69
2022-12-07T16:37:02.618Z,1.66
2022-12-07T16:39:35.388Z,1.70
2022-12-07T16:42:46.078Z,1.60
2022-12-07T16:45:40.906Z,1.47
2022-12-07T16:48:32.943Z,1.39
2022-12-07T16:52:22.663Z,1.24
2022-12-07T16:55:06.669Z,1.31
2022-12-07T16:58:06.124Z,1.29
2022-12-07T17:00:51.209Z,1.20
2022-12-07T17:03:33.807Z,1.03
2022-12-07T17:06:25.799Z,0.97
2022-12-07T17:09:21.443Z,0.88
2022-12-07T17:12:06.339Z,0.97
2022-12-07T17:15:22.196Z,0.89
2022-12-07T17:18:41.043Z,0.67
2022-12-07T17:21:41.369Z,0.75
2022-12-07T17:24:29.152Z,0.86
2022-12-07T17:27:13.494Z,0.77
2022-12-07T17:33:02.947Z,0.77
2022-12-07T17:36:03.947Z,0.70
2022-12-07T17:38:48.638Z,0.58
2022-12-07T17:41:53.260Z,0.46
2022-12-07T17:44:42.041Z,0.36
2022-12-07T17:47:36.911Z,0.40
2022-12-07T17:50:38.850Z,0.28
2022-12-07T17:53:30.017Z,0.19
2022-12-07T17:59:28.790Z,-0.12
2022-12-07T18:02:24.245Z,-0.22
2022-12-07T18:05:08.133Z,-0.27
2022-12-07T18:07:53.222Z,-0.25
2022-12-07T18:10:54.336Z,-0.32
2022-12-07T18:13:46.967Z,-0.36
2022-12-07T18:16:53.422Z,-0.44
2022-12-07T18:19:39.510Z,-0.51
2022-12-07T18:22:17.832Z,-0.54
2022-12-07T18:25:16.797Z,-0.49
2022-12-07T18:27:55.367Z,-0.48
2022-12-07T18:31:14.999Z,-0.54
2022-12-07T18:34:29.482Z,-0.35
2022-12-07T18:37:21.327Z,-0.36
2022-12-07T18:40:33.581Z,-0.45
2022-12-07T18:43:23.369Z,-0.61
2022-12-07T18:46:18.277Z,-0.63
2022-12-07T18:49:19.623Z,-0.58
2022-12-07T18:51:56.656Z,-0.62
2022-12-07T18:54:42.391Z,-0.49
2022-12-07T18:57:29.281Z,-0.43
2022-12-07T19:00:09.808Z,-0.57
2022-12-07T19:03:04.648Z,-0.59
2022-12-07T19:05:49.001Z,-0.64
2022-12-07T19:08:34.993Z,-0.66
2022-12-07T19:11:45.726Z,-0.68
2022-12-07T19:14:55.616Z,-0.79
2022-12-07T19:17:41.761Z,-0.78
2022-12-07T19:20:33.188Z,-0.60
2022-12-07T19:23:27.711Z,-0.66
2022-12-07T19:26:21.815Z,-0.70
2022-12-07T19:29:12.769Z,-0.76
2022-12-07T19:31:58.204Z,-0.77
2022-12-07T19:34:40.125Z,-0.75
2022-12-07T19:37:31.499Z,-0.82
2022-12-07T19:40:15.211Z,-0.81
2022-12-07T19:42:53.574Z,-0.89
2022-12-07T19:45:45.643Z,-0.90
2022-12-07T19:48:44.889Z,-0.80
2022-12-07T19:51:31.356Z,-0.84
2022-12-07T19:54:18.107Z,-0.77
2022-12-07T19:56:57.277Z,-0.74
2022-12-07T19:59:52.331Z,-0.77
2022-12-07T20:02:30.822Z,-0.77
2022-12-07T20:05:15.557Z,-0.73
2022-12-07T20:08:04.757Z,-0.57
2022-12-07T20:10:51.130Z,-0.70
2022-12-07T20:13:43.491Z,-0.50
2022-12-07T20:16:49.271Z,-0.51
2022-12-07T20:19:35.288Z,-0.54
2022-12-07T20:22:28.673Z,-0.54
2022-12-07T20:25:13.433Z,-0.59
2022-12-07T20:27:56.767Z,-0.61
2022-12-07T20:30:59.785Z,-0.71
2022-12-07T20:33:42.021Z,-0.70
2022-12-07T20:36:35.323Z,-0.71
2022-12-07T20:39:23.718Z,-0.82
2022-12-07T20:42:26.894Z,-0.70
2022-12-07T20:45:19.632Z,-0.76
2022-12-07T20:48:00.975Z,-0.74
2022-12-07T20:50:49.214Z,-0.76
2022-12-07T20:53:33.208Z,-0.70
2022-12-07T20:56:31.144Z,-0.84
2022-12-07T20:59:10.641Z,-1.01
2022-12-07T21:01:54.501Z,-0.99
2022-12-07T21:04:47.815Z,-1.08
2022-12-07T21:07:25.386Z,-1.16
2022-12-07T21:10:09.046Z,-1.06
2022-12-07T21:12:52.597Z,-0.93
2022-12-07T21:15:33.915Z,-1.04
2022-12-07T21:18:14.676Z,-1.11
2022-12-07T21:20:55.240Z,-1.18
2022-12-07T21:23:43.353Z,-1.19
2022-12-07T21:26:39.097Z,-1.15
2022-12-07T21:29:25.775Z,-1.21
2022-12-07T21:32:10.176Z,-1.21
2022-12-07T21:34:53.588Z,-1.21
2022-12-07T21:37:37.732Z,-1.28
2022-12-07T21:40:25.329Z,-1.47
2022-12-07T21:43:11.104Z,-1.50
2022-12-07T21:45:56.280Z,-1.49
2022-12-07T21:48:45.685Z,-1.52
2022-12-07T21:51:32.555Z,-1.57
2022-12-07T21:54:24.173Z,-1.69
2022-12-07T21:57:11.910Z,-1.69
2022-12-07T21:59:57.424Z,-1.73
2022-12-07T22:03:14.620Z,-1.61
2022-12-07T22:06:03.055Z,-1.60
2022-12-07T22:08:43.189Z,-1.54
2022-12-07T22:11:23.738Z,-1.45
2022-12-07T22:14:20.060Z,-1.55
2022-12-07T22:17:12.351Z,-1.45
2022-12-07T22:19:59.618Z,-1.39
2022-12-07T22:22:44.954Z,-1.34
2022-12-07T22:25:21.143Z,-1.36
2022-12-07T22:28:07.179Z,-1.25
2022-12-07T22:30:52.493Z,-1.27
2022-12-07T22:33:41.713Z,-1.31
2022-12-07T22:36:24.766Z,-1.46
2022-12-07T22:39:10.543Z,-1.52
2022-12-07T22:41:50.755Z,-1.64
2022-12-07T22:44:33.847Z,-1.69
2022-12-07T22:47:19.106Z,-1.79
2022-12-07T22:50:07.297Z,-1.71
2022-12-07T22:52:49.150Z,-1.72
2022-12-07T22:55:33.605Z,-1.60
2022-12-07T22:58:19.905Z,-1.69
2022-12-07T23:01:12.123Z,-1.72
2022-12-07T23:03:58.157Z,-1.72
2022-12-07T23:06:38.190Z,-1.77
2022-12-07T23:09:27.169Z,-1.75
2022-12-07T23:12:21.111Z,-1.84
2022-12-07T23:15:28.416Z,-1.81
2022-12-07T23:18:09.587Z,-1.79
2022-12-07T23:20:53.090Z,-1.78
2022-12-07T23:23:37.035Z,-1.91
2022-12-07T23:26:13.504Z,-1.88
2022-12-07T23:29:01.259Z,-1.88
2022-12-07T23:31:53.671Z,-1.86
2022-12-07T23:34:42.118Z,-1.93
2022-12-07T23:37:26.641Z,-2.09
2022-12-07T23:40:15.766Z,-2.27
2022-12-07T23:42:59.852Z,-2.24
2022-12-07T23:45:53.053Z,-2.12
2022-12-07T23:48:39.741Z,-2.22
2022-12-07T23:51:18.087Z,-2.19
2022-12-07T23:54:06.668Z,-2.23
2022-12-07T23:56:56.071Z,-2.31
2022-12-07T23:59:40.449Z,-2.26
